createdAt,value
2023-05-04T00:02:12.787Z,5.68
2023-05-04T00:04:42.877Z,5.32
2023-05-04T00:07:10.700Z,5.43
2023-05-04T00:09:38.425Z,5.78
2023-05-04T00:12:07.018Z,5.70
2023-05-04T00:14:34.807Z,5.07
2023-05-04T00:17:06.446Z,5.30
2023-05-04T00:19:34.211Z,4.80
2023-05-04T00:22:02.025Z,5.37
2023-05-04T00:24:29.805Z,4.80
2023-05-04T00:26:57.435Z,5.20
2023-05-04T00:29:25.144Z,5.47
2023-05-04T00:31:52.826Z,5.10
2023-05-04T00:34:21.874Z,5.20
2023-05-04T00:36:49.700Z,5.70
2023-05-04T00:39:17.340Z,5.22
2023-05-04T00:41:45.935Z,5.22
2023-05-04T00:44:14.136Z,5.95
2023-05-04T00:46:42.122Z,5.20
2023-05-04T00:49:10.084Z,4.97
2023-05-04T00:51:39.182Z,5.25
2023-05-04T00:54:06.898Z,5.00
2023-05-04T00:56:39.075Z,5.17
2023-05-04T00:59:06.959Z,4.87
2023-05-04T01:01:34.677Z,5.53
2023-05-04T01:04:02.885Z,5.22
2023-05-04T01:06:36.255Z,5.50
2023-05-04T01:09:10.729Z,5.60
2023-05-04T01:11:42.422Z,5.20
2023-05-04T01:14:11.078Z,5.05
2023-05-04T01:16:38.815Z,5.50
2023-05-04T01:19:06.562Z,5.70
2023-05-04T01:21:36.832Z,6.00
2023-05-04T01:24:04.734Z,5.80
2023-05-04T01:26:36.702Z,5.43
2023-05-04T01:29:12.660Z,5.90
2023-05-04T01:31:40.988Z,5.53
2023-05-04T01:34:08.933Z,5.72
2023-05-04T01:36:38.022Z,5.87
2023-05-04T01:39:05.769Z,5.60
2023-05-04T01:41:33.502Z,5.65
2023-05-04T01:44:01.210Z,6.03
2023-05-04T01:46:29.204Z,5.95
2023-05-04T01:48:57.019Z,6.07
2023-05-04T01:51:24.667Z,6.07
2023-05-04T01:53:53.695Z,6.10
2023-05-04T01:56:21.741Z,6.20
2023-05-04T01:58:49.478Z,6.30
2023-05-04T02:01:17.204Z,6.40
2023-05-04T02:03:45.557Z,6.28
2023-05-04T02:06:13.289Z,6.03
2023-05-04T02:08:41.069Z,5.95
2023-05-04T02:11:10.128Z,5.80
2023-05-04T02:13:37.783Z,5.97
2023-05-04T02:16:06.242Z,6.70
2023-05-04T02:18:33.950Z,6.65
2023-05-04T02:21:01.721Z,6.22
2023-05-04T02:23:29.653Z,6.65
2023-05-04T02:25:57.309Z,6.30
2023-05-04T02:28:26.387Z,6.70
2023-05-04T02:30:54.114Z,5.90
2023-05-04T02:33:21.839Z,6.35
2023-05-04T02:35:49.593Z,6.53
2023-05-04T02:38:17.211Z,6.63
2023-05-04T02:40:44.877Z,6.23
2023-05-04T02:43:12.606Z,6.35
2023-05-04T02:45:41.746Z,6.55
2023-05-04T02:48:09.514Z,7.10
2023-05-04T02:50:37.709Z,6.82
2023-05-04T02:53:05.366Z,7.03
2023-05-04T02:55:33.052Z,7.03
2023-05-04T02:58:01.247Z,7.07
2023-05-04T03:00:28.955Z,7.20
2023-05-04T03:02:58.018Z,7.38
2023-05-04T03:05:25.875Z,7.03
2023-05-04T03:07:53.590Z,7.22
2023-05-04T03:10:21.948Z,7.43
2023-05-04T03:12:49.683Z,7.65
2023-05-04T03:15:17.753Z,6.97
2023-05-04T03:17:45.517Z,7.53
2023-05-04T03:20:15.709Z,7.82
2023-05-04T03:22:43.425Z,7.75
2023-05-04T03:25:11.255Z,7.97
2023-05-04T03:27:38.930Z,8.23
2023-05-04T03:30:08.127Z,7.43
2023-05-04T03:32:36.200Z,8.45
2023-05-04T03:35:04.374Z,8.02
2023-05-04T03:37:33.577Z,8.35
2023-05-04T03:40:01.283Z,8.20
2023-05-04T03:42:28.954Z,8.05
2023-05-04T03:44:56.638Z,8.20
2023-05-04T03:47:24.412Z,8.30
2023-05-04T03:49:52.122Z,8.67
2023-05-04T03:52:19.748Z,9.05
2023-05-04T03:54:48.803Z,8.57
2023-05-04T03:57:16.501Z,8.43
2023-05-04T03:59:44.249Z,8.80
2023-05-04T04:02:12.012Z,9.50
2023-05-04T04:04:39.868Z,9.37
2023-05-04T04:07:07.670Z,8.88
2023-05-04T04:09:35.415Z,8.95
2023-05-04T04:12:04.797Z,9.50
2023-05-04T04:14:32.464Z,9.15
2023-05-04T04:17:00.122Z,9.00
2023-05-04T04:19:27.821Z,9.48
2023-05-04T04:21:55.758Z,9.85
2023-05-04T04:24:23.469Z,9.82
2023-05-04T04:26:51.103Z,9.35
2023-05-04T04:29:20.177Z,9.90
2023-05-04T04:31:47.804Z,9.80
2023-05-04T04:34:15.550Z,10.05
2023-05-04T04:36:43.865Z,10.13
2023-05-04T04:39:12.131Z,9.63
2023-05-04T04:41:39.825Z,10.20
2023-05-04T04:44:07.639Z,9.90
2023-05-04T04:46:36.868Z,9.45
2023-05-04T04:49:04.547Z,10.02
2023-05-04T04:51:32.665Z,10.67
2023-05-04T04:54:00.305Z,11.07
2023-05-04T04:56:28.031Z,9.90
2023-05-04T04:58:55.658Z,9.77
2023-05-04T05:01:23.502Z,10.45
2023-05-04T05:03:52.540Z,10.23
2023-05-04T05:06:20.775Z,9.88
2023-05-04T05:08:48.525Z,9.80
2023-05-04T05:11:16.486Z,10.35
2023-05-04T05:13:44.269Z,10.50
2023-05-04T05:16:12.028Z,10.27
2023-05-04T05:18:39.763Z,9.60
2023-05-04T05:21:09.176Z,10.23
2023-05-04T05:23:36.764Z,10.18
2023-05-04T05:26:04.416Z,10.35
2023-05-04T05:28:32.474Z,9.80
2023-05-04T05:31:00.235Z,9.38
2023-05-04T05:33:28.020Z,9.73
2023-05-04T05:35:55.742Z,9.80
2023-05-04T05:38:24.887Z,9.85
2023-05-04T05:40:52.598Z,9.38
2023-05-04T05:43:20.278Z,9.70
2023-05-04T05:45:48.713Z,8.95
2023-05-04T05:48:16.453Z,9.30
2023-05-04T05:50:44.186Z,8.98
2023-05-04T05:53:11.866Z,9.77
2023-05-04T05:55:40.971Z,9.23
2023-05-04T05:58:08.708Z,9.05
2023-05-04T06:00:36.360Z,8.82
2023-05-04T06:03:04.076Z,9.00
2023-05-04T06:05:32.028Z,8.57
2023-05-04T06:07:59.827Z,8.25
2023-05-04T06:10:27.941Z,8.90
2023-05-04T06:12:57.077Z,8.25
2023-05-04T06:15:24.835Z,8.50
2023-05-04T06:17:52.597Z,8.80
2023-05-04T06:20:20.420Z,8.73
2023-05-04T06:22:48.042Z,8.20
2023-05-04T06:25:15.777Z,8.18
2023-05-04T06:27:43.600Z,7.95
2023-05-04T06:30:14.033Z,8.10
2023-05-04T06:32:41.920Z,7.97
2023-05-04T06:35:10.579Z,7.20
2023-05-04T06:37:38.278Z,7.43
2023-05-04T06:40:07.291Z,7.53
2023-05-04T06:42:35.059Z,7.60
2023-05-04T06:45:03.176Z,7.30
2023-05-04T06:47:32.491Z,7.00
2023-05-04T06:50:00.226Z,7.20
2023-05-04T06:52:29.658Z,6.53
2023-05-04T06:54:57.357Z,6.60
2023-05-04T06:57:25.180Z,6.85
2023-05-04T06:59:53.687Z,6.60
2023-05-04T07:02:21.379Z,6.50
2023-05-04T07:04:50.638Z,6.97
2023-05-04T07:07:18.311Z,6.85
2023-05-04T07:09:47.860Z,6.65
2023-05-04T07:12:15.616Z,6.32
2023-05-04T07:14:43.328Z,6.85
2023-05-04T07:17:11.803Z,6.18
2023-05-04T07:19:39.470Z,6.80
2023-05-04T07:22:08.503Z,6.28
2023-05-04T07:24:36.198Z,6.43
2023-05-04T07:27:03.901Z,6.38
2023-05-04T07:29:32.198Z,6.40
2023-05-04T07:31:59.950Z,6.43
2023-05-04T07:34:41.742Z,5.87
2023-05-04T07:37:13.944Z,6.32
2023-05-04T07:39:41.692Z,5.82
2023-05-04T07:42:11.201Z,5.68
2023-05-04T07:44:38.879Z,6.20
2023-05-04T07:47:06.580Z,5.85
2023-05-04T07:49:34.316Z,5.80
2023-05-04T07:52:02.005Z,6.18
2023-05-04T07:54:31.409Z,6.07
2023-05-04T07:56:59.154Z,6.07
2023-05-04T07:59:26.942Z,6.20
2023-05-04T08:01:54.649Z,6.28
2023-05-04T08:04:22.455Z,5.95
2023-05-04T08:06:50.892Z,5.68
2023-05-04T08:09:19.953Z,5.43
2023-05-04T08:11:50.029Z,6.45
2023-05-04T08:14:17.759Z,5.53
2023-05-04T08:16:45.481Z,5.60
2023-05-04T08:19:13.478Z,5.80
2023-05-04T08:21:41.517Z,5.28
2023-05-04T08:24:09.216Z,5.60
2023-05-04T08:26:38.091Z,5.85
2023-05-04T08:29:08.466Z,5.70
2023-05-04T08:31:36.453Z,5.10
2023-05-04T08:34:04.697Z,5.25
2023-05-04T08:36:32.441Z,5.57
2023-05-04T08:39:00.137Z,5.10
2023-05-04T08:41:27.889Z,5.30
2023-05-04T08:43:55.612Z,5.30
2023-05-04T08:46:24.895Z,5.30
2023-05-04T08:48:52.991Z,5.47
2023-05-04T08:51:21.170Z,5.10
2023-05-04T08:53:49.598Z,5.30
2023-05-04T08:56:17.917Z,5.20
2023-05-04T08:58:49.924Z,5.63
2023-05-04T09:01:18.618Z,5.00
2023-05-04T09:03:48.544Z,5.15
2023-05-04T09:06:16.435Z,5.05
2023-05-04T09:08:44.129Z,5.15
2023-05-04T09:11:11.765Z,4.68
2023-05-04T09:13:39.479Z,4.93
2023-05-04T09:16:07.761Z,5.07
2023-05-04T09:18:39.460Z,5.65
2023-05-04T09:21:08.892Z,4.70
2023-05-04T09:23:47.273Z,4.50
2023-05-04T09:26:15.098Z,5.00
2023-05-04T09:28:43.382Z,4.97
2023-05-04T09:31:11.799Z,4.70
2023-05-04T09:33:39.538Z,4.70
2023-05-04T09:36:19.294Z,4.38
2023-05-04T09:38:47.045Z,4.50
2023-05-04T09:41:14.902Z,5.20
2023-05-04T09:43:43.841Z,4.80
2023-05-04T09:46:18.248Z,4.90
2023-05-04T09:48:53.402Z,4.25
2023-05-04T09:51:24.841Z,4.35
2023-05-04T09:53:53.822Z,4.88
2023-05-04T09:56:28.641Z,3.85
2023-05-04T09:58:58.739Z,3.85
2023-05-04T10:01:29.058Z,4.32
2023-05-04T10:03:56.834Z,3.85
2023-05-04T10:06:26.418Z,4.07
2023-05-04T10:08:54.050Z,4.15
2023-05-04T10:11:21.713Z,4.25
2023-05-04T10:13:49.893Z,3.92
2023-05-04T10:16:27.562Z,4.45
2023-05-04T10:19:17.936Z,4.13
2023-05-04T10:21:56.942Z,3.40
2023-05-04T10:24:37.966Z,3.80
2023-05-04T10:27:08.263Z,3.47
2023-05-04T10:29:36.153Z,3.42
2023-05-04T10:32:04.250Z,3.60
2023-05-04T10:34:33.236Z,3.28
2023-05-04T10:37:03.403Z,3.10
2023-05-04T10:39:32.465Z,3.20
2023-05-04T10:42:01.610Z,2.65
2023-05-04T10:44:30.122Z,2.72
2023-05-04T10:46:59.905Z,2.63
2023-05-04T10:49:27.801Z,3.25
2023-05-04T10:52:11.248Z,3.10
2023-05-04T10:54:39.698Z,3.10
2023-05-04T10:57:09.090Z,3.13
2023-05-04T10:59:37.277Z,2.80
2023-05-04T11:02:05.562Z,2.88
2023-05-04T11:04:33.543Z,3.08
2023-05-04T11:07:03.133Z,3.00
2023-05-04T11:09:37.746Z,2.83
2023-05-04T11:12:05.796Z,3.47
2023-05-04T11:14:37.545Z,3.50
2023-05-04T11:17:47.537Z,3.47
2023-05-04T11:20:22.727Z,3.45
2023-05-04T11:22:50.724Z,3.67
2023-05-04T11:25:18.910Z,3.58
2023-05-04T11:27:50.423Z,3.75
2023-05-04T11:30:18.244Z,3.30
2023-05-04T11:32:47.527Z,3.37
2023-05-04T11:35:16.912Z,4.03
2023-05-04T11:37:46.240Z,3.38
2023-05-04T11:40:16.311Z,3.70
2023-05-04T11:42:44.834Z,4.00
2023-05-04T11:45:15.656Z,3.65
2023-05-04T11:47:43.655Z,4.13
2023-05-04T11:50:13.800Z,4.07
2023-05-04T11:52:41.814Z,3.80
2023-05-04T11:55:11.058Z,3.77
2023-05-04T11:57:39.188Z,3.92
2023-05-04T12:00:08.377Z,3.42
2023-05-04T12:02:36.461Z,3.65
2023-05-04T12:05:05.317Z,4.00
2023-05-04T12:07:37.862Z,3.92
2023-05-04T12:10:06.017Z,3.47
2023-05-04T12:12:37.251Z,3.63
2023-05-04T12:15:07.720Z,3.07
2023-05-04T12:17:41.949Z,3.17
2023-05-04T12:20:10.094Z,2.80
2023-05-04T12:22:39.581Z,3.37
2023-05-04T12:25:09.303Z,2.70
2023-05-04T12:27:41.542Z,2.58
2023-05-04T12:30:11.077Z,2.88
2023-05-04T12:32:39.080Z,2.85
2023-05-04T12:35:07.981Z,3.13
2023-05-04T12:37:35.857Z,2.50
2023-05-04T12:40:11.268Z,2.83
2023-05-04T12:42:45.591Z,2.80
2023-05-04T12:45:14.054Z,3.30
2023-05-04T12:47:42.332Z,2.63
2023-05-04T12:50:10.990Z,3.00
2023-05-04T12:52:39.905Z,2.40
2023-05-04T12:55:09.676Z,2.80
2023-05-04T12:57:37.860Z,3.33
2023-05-04T13:00:09.793Z,2.45
2023-05-04T13:02:37.606Z,2.80
2023-05-04T13:05:05.904Z,2.92
2023-05-04T13:07:33.777Z,3.25
2023-05-04T13:10:01.853Z,3.00
2023-05-04T13:12:31.014Z,3.05
2023-05-04T13:14:59.510Z,3.38
2023-05-04T13:17:29.572Z,3.10
2023-05-04T13:19:57.285Z,2.80
2023-05-04T13:22:24.909Z,3.33
2023-05-04T13:24:52.497Z,3.20
2023-05-04T13:27:20.191Z,3.60
2023-05-04T13:29:49.229Z,3.17
2023-05-04T13:32:16.945Z,3.70
2023-05-04T13:34:44.918Z,3.55
2023-05-04T13:37:18.156Z,2.80
2023-05-04T13:39:46.213Z,3.20
2023-05-04T13:42:14.127Z,3.10
2023-05-04T13:44:45.301Z,3.40
2023-05-04T13:47:14.406Z,3.50
2023-05-04T13:49:42.072Z,3.05
2023-05-04T13:52:10.018Z,3.13
2023-05-04T13:54:37.968Z,3.47
2023-05-04T13:57:05.872Z,3.90
2023-05-04T14:00:19.315Z,3.80
2023-05-04T14:02:47.289Z,3.58
2023-05-04T14:05:15.158Z,3.38
2023-05-04T14:07:42.837Z,3.40
2023-05-04T14:10:11.521Z,3.20
2023-05-04T14:12:39.227Z,3.55
2023-05-04T14:16:19.573Z,3.58
2023-05-04T14:18:47.740Z,4.00
2023-05-04T14:21:15.626Z,3.58
2023-05-04T14:23:44.726Z,4.27
2023-05-04T14:26:12.365Z,3.90
2023-05-04T14:28:40.104Z,3.95
2023-05-04T14:31:08.900Z,3.65
2023-05-04T14:33:38.004Z,3.70
2023-05-04T14:36:06.154Z,4.20
2023-05-04T14:38:35.250Z,3.97
2023-05-04T14:41:03.031Z,3.60
2023-05-04T14:43:30.719Z,3.90
2023-05-04T14:46:00.177Z,4.25
2023-05-04T14:48:28.634Z,3.25
2023-05-04T15:09:16.084Z,3.13
2023-05-04T15:11:43.774Z,3.38
2023-05-04T15:14:11.490Z,3.57
2023-05-04T15:16:39.342Z,3.20
2023-05-04T15:19:07.794Z,3.92
2023-05-04T15:21:36.019Z,3.43
2023-05-04T15:24:03.708Z,3.03
2023-05-04T15:26:34.453Z,3.40
2023-05-04T15:29:02.185Z,3.22
2023-05-04T15:31:29.928Z,3.20
2023-05-04T15:33:57.540Z,3.38
2023-05-04T15:36:25.435Z,2.80
2023-05-04T15:38:53.135Z,3.30
2023-05-04T15:42:17.337Z,2.67
2023-05-04T15:44:45.675Z,4.35
2023-05-04T15:47:13.404Z,4.10
2023-05-04T15:49:41.172Z,4.15
2023-05-04T15:52:10.454Z,3.75
2023-05-04T15:54:38.127Z,4.47
2023-05-04T15:57:06.185Z,4.57
2023-05-04T15:59:35.323Z,4.53
2023-05-04T16:02:05.922Z,4.07
2023-05-04T16:04:33.594Z,4.07
2023-05-04T16:07:01.401Z,3.87
2023-05-04T16:09:30.541Z,3.90
2023-05-04T16:11:58.329Z,4.13
2023-05-04T16:14:26.085Z,4.15
2023-05-04T16:16:55.419Z,4.20
2023-05-04T16:19:23.145Z,4.28
2023-05-04T16:21:50.822Z,3.97
2023-05-04T16:24:18.527Z,4.37
2023-05-04T16:26:49.753Z,3.60
2023-05-04T16:29:17.466Z,3.45
2023-05-04T16:31:47.615Z,4.10
2023-05-04T16:34:16.620Z,4.15
2023-05-04T16:36:44.748Z,4.30
2023-05-04T16:39:13.592Z,3.47
2023-05-04T16:41:41.296Z,3.47
2023-05-04T16:44:08.983Z,3.78
2023-05-04T16:46:36.734Z,3.42
2023-05-04T16:49:15.537Z,3.70
2023-05-04T16:51:43.494Z,3.17
2023-05-04T16:54:11.331Z,3.03
2023-05-04T16:56:39.214Z,3.17
2023-05-04T16:59:06.873Z,3.08
2023-05-04T17:01:35.105Z,3.40
2023-05-04T17:04:02.944Z,3.10
2023-05-04T17:06:32.232Z,3.07
2023-05-04T17:08:59.913Z,2.97
2023-05-04T17:11:27.639Z,3.20
2023-05-04T17:13:55.972Z,3.00
2023-05-04T17:16:23.704Z,2.92
2023-05-04T17:18:51.454Z,2.65
2023-05-04T17:21:19.870Z,2.50
2023-05-04T17:23:48.924Z,2.53
2023-05-04T17:26:16.550Z,2.10
2023-05-04T17:28:44.305Z,2.58
2023-05-04T17:31:12.607Z,1.95
2023-05-04T17:33:40.448Z,2.30
2023-05-04T17:36:11.106Z,2.13
2023-05-04T17:38:38.824Z,2.17
2023-05-04T17:41:09.687Z,2.20
2023-05-04T17:43:37.720Z,2.07
2023-05-04T17:46:05.642Z,2.00
2023-05-04T17:48:33.327Z,1.98
2023-05-04T17:51:00.994Z,1.83
2023-05-04T17:53:28.729Z,1.80
2023-05-04T17:55:56.449Z,2.05
2023-05-04T17:58:25.954Z,2.20
2023-05-04T18:00:53.976Z,1.90
2023-05-04T18:03:21.731Z,1.80
2023-05-04T18:05:49.496Z,1.77
2023-05-04T18:08:17.196Z,1.90
2023-05-04T18:10:44.860Z,1.40
2023-05-04T18:13:12.568Z,1.85
2023-05-04T18:15:41.612Z,1.80
2023-05-04T18:18:10.824Z,1.55
2023-05-04T18:20:38.623Z,1.70
2023-05-04T18:23:06.288Z,1.70
2023-05-04T18:25:34.023Z,1.90
2023-05-04T18:28:01.697Z,1.98
2023-05-04T18:30:29.675Z,2.17
2023-05-04T18:32:58.764Z,2.22
2023-05-04T18:35:26.441Z,2.08
2023-05-04T18:37:54.104Z,2.20
2023-05-04T18:40:23.880Z,2.47
2023-05-04T18:42:51.686Z,2.42
2023-05-04T18:45:19.350Z,2.35
2023-05-04T18:47:47.039Z,2.40
2023-05-04T18:50:16.275Z,1.90
2023-05-04T18:52:43.957Z,1.85
2023-05-04T18:55:11.662Z,2.03
2023-05-04T18:57:39.332Z,1.80
2023-05-04T19:00:08.972Z,2.20
2023-05-04T19:02:37.771Z,1.70
2023-05-04T19:05:05.977Z,2.00
2023-05-04T19:07:35.007Z,2.00
2023-05-04T19:10:02.810Z,2.10
2023-05-04T19:12:30.614Z,2.05
2023-05-04T19:14:59.070Z,1.67
2023-05-04T19:17:27.329Z,1.92
2023-05-04T19:19:54.942Z,1.98
2023-05-04T19:22:22.629Z,1.77
2023-05-04T19:24:52.473Z,1.90
2023-05-04T19:27:20.086Z,1.95
2023-05-04T19:29:47.702Z,1.73
2023-05-04T19:32:23.323Z,1.90
2023-05-04T19:34:51.804Z,2.00
2023-05-04T19:37:19.499Z,1.97
2023-05-04T19:39:47.423Z,1.85
2023-05-04T19:42:16.479Z,1.90
2023-05-04T19:44:44.187Z,1.67
2023-05-04T19:47:12.654Z,1.75
2023-05-04T19:49:40.310Z,1.90
2023-05-04T19:52:07.976Z,1.80
2023-05-04T19:54:38.056Z,1.70
2023-05-04T19:57:05.744Z,1.87
2023-05-04T19:59:35.483Z,1.70
2023-05-04T20:02:03.780Z,1.67
2023-05-04T20:04:31.418Z,1.55
2023-05-04T20:06:59.071Z,1.58
2023-05-04T20:09:26.673Z,1.60
2023-05-04T20:11:54.302Z,1.53
2023-05-04T20:14:21.893Z,1.40
2023-05-04T20:16:53.344Z,1.70
2023-05-04T20:19:21.037Z,1.70
2023-05-04T20:21:49.010Z,2.00
2023-05-04T20:24:17.228Z,1.60
2023-05-04T20:26:44.911Z,1.60
2023-05-04T20:29:12.656Z,1.40
2023-05-04T20:31:41.033Z,1.63
2023-05-04T20:34:10.189Z,1.80
2023-05-04T20:36:38.190Z,1.55
2023-05-04T20:39:06.810Z,1.50
2023-05-04T20:41:34.595Z,1.60
2023-05-04T20:44:02.299Z,1.85
2023-05-04T20:46:29.962Z,2.00
2023-05-04T20:48:59.297Z,1.55
2023-05-04T20:51:28.334Z,1.80
2023-05-04T20:53:56.068Z,1.70
2023-05-04T20:56:23.787Z,1.95
2023-05-04T20:58:51.646Z,1.73
2023-05-04T21:01:19.367Z,1.88
2023-05-04T21:03:47.192Z,2.10
2023-05-04T21:06:14.963Z,1.83
2023-05-04T21:08:44.068Z,2.05
2023-05-04T21:11:11.721Z,2.25
2023-05-04T21:13:39.317Z,1.88
2023-05-04T21:16:07.794Z,2.08
2023-05-04T21:18:36.031Z,2.10
2023-05-04T21:21:04.112Z,1.90
2023-05-04T21:23:32.006Z,2.40
2023-05-04T21:26:04.397Z,1.60
2023-05-04T21:28:32.582Z,2.10
2023-05-04T21:31:00.692Z,1.90
2023-05-04T21:33:28.504Z,1.90
2023-05-04T21:35:56.187Z,1.88
2023-05-04T21:38:23.780Z,2.30
2023-05-04T21:40:51.450Z,2.20
2023-05-04T21:43:20.506Z,2.38
2023-05-04T21:45:48.181Z,2.03
2023-05-04T21:48:15.880Z,2.25
2023-05-04T21:50:43.553Z,2.00
2023-05-04T21:53:11.237Z,2.17
2023-05-04T21:55:38.859Z,2.05
2023-05-04T21:58:06.509Z,2.08
2023-05-04T22:00:35.621Z,2.25
2023-05-04T22:03:03.411Z,2.38
2023-05-04T22:05:31.175Z,2.63
2023-05-04T22:08:00.801Z,2.20
2023-05-04T22:10:28.508Z,2.60
2023-05-04T22:12:56.235Z,2.40
2023-05-04T22:15:27.533Z,2.35
2023-05-04T22:18:00.818Z,2.30
2023-05-04T22:20:28.604Z,2.50
2023-05-04T22:22:56.576Z,2.40
2023-05-04T22:25:24.261Z,2.28
2023-05-04T22:27:51.973Z,2.42
2023-05-04T22:30:21.409Z,2.40
2023-05-04T22:32:49.140Z,2.33
2023-05-04T22:35:18.427Z,2.30
2023-05-04T22:37:47.991Z,2.80
2023-05-04T22:40:15.830Z,2.27
2023-05-04T22:42:44.780Z,2.67
2023-05-04T22:45:13.962Z,2.72
2023-05-04T22:47:42.143Z,2.80
2023-05-04T22:50:10.861Z,2.38
2023-05-04T22:52:40.245Z,2.67
2023-05-04T22:55:09.212Z,2.42
2023-05-04T22:57:36.947Z,2.63
2023-05-04T23:00:07.677Z,2.80
2023-05-04T23:02:35.838Z,2.47
2023-05-04T23:05:03.894Z,2.38
2023-05-04T23:07:31.599Z,2.58
2023-05-04T23:10:00.776Z,2.85
2023-05-04T23:12:28.780Z,2.50
2023-05-04T23:14:56.435Z,2.33
2023-05-04T23:17:24.148Z,2.55
2023-05-04T23:19:51.971Z,2.80
2023-05-04T23:22:20.102Z,2.40
2023-05-04T23:24:47.767Z,2.70
2023-05-04T23:27:16.841Z,2.67
2023-05-04T23:29:44.537Z,2.45
2023-05-04T23:32:12.270Z,2.97
2023-05-04T23:34:39.955Z,2.63
2023-05-04T23:37:07.611Z,2.70
2023-05-04T23:39:35.696Z,2.75
2023-05-04T23:42:03.369Z,2.58
2023-05-04T23:44:32.933Z,2.65
2023-05-04T23:47:00.580Z,2.92
2023-05-04T23:49:28.212Z,2.97
2023-05-04T23:51:56.409Z,2.42
2023-05-04T23:54:24.355Z,2.88
2023-05-04T23:56:52.047Z,2.63
2023-05-04T23:59:19.748Z,2.88
